createdAt,value
2022-11-08T00:02:06.929Z,74.38
2022-11-08T00:04:34.774Z,71.93
2022-11-08T00:07:19.769Z,63.20
2022-11-08T00:10:04.960Z,68.72
2022-11-08T00:12:50.436Z,64.55
2022-11-08T00:15:17.469Z,67.82
2022-11-08T00:17:44.460Z,64.72
2022-11-08T00:20:11.502Z,64.30
2022-11-08T00:22:38.152Z,68.22
2022-11-08T00:25:05.315Z,70.25
2022-11-08T00:27:31.997Z,64.32
2022-11-08T00:29:58.536Z,71.43
2022-11-08T00:32:26.301Z,73.68
2022-11-08T00:34:53.192Z,68.60
2022-11-08T00:37:21.602Z,68.32
2022-11-08T00:39:49.163Z,77.90
2022-11-08T00:42:16.155Z,77.70
2022-11-08T00:44:42.742Z,75.07
2022-11-08T00:47:09.759Z,76.15
2022-11-08T00:49:36.403Z,74.28
2022-11-08T00:52:03.497Z,71.25
2022-11-08T00:54:30.347Z,72.82
2022-11-08T00:56:56.967Z,71.85
2022-11-08T00:59:23.769Z,75.90
2022-11-08T01:01:50.604Z,80.85
2022-11-08T01:04:19.027Z,73.20
2022-11-08T01:06:45.986Z,71.95
2022-11-08T01:09:13.557Z,73.53
2022-11-08T01:11:45.331Z,75.40
2022-11-08T01:14:13.563Z,70.50
2022-11-08T01:16:41.137Z,79.55
2022-11-08T01:19:08.194Z,73.72
2022-11-08T01:21:35.119Z,69.93
2022-11-08T01:24:01.864Z,71.40
2022-11-08T01:26:29.458Z,73.15
2022-11-08T01:28:57.451Z,65.13
2022-11-08T01:31:29.644Z,76.20
2022-11-08T01:36:26.106Z,68.72
2022-11-08T01:38:54.089Z,70.82
2022-11-08T01:41:23.623Z,73.63
2022-11-08T01:43:56.312Z,68.78
2022-11-08T01:46:38.122Z,72.32
2022-11-08T01:49:15.682Z,66.40
2022-11-08T01:52:15.169Z,61.63
2022-11-08T01:55:15.922Z,60.15
2022-11-08T01:57:52.682Z,64.00
2022-11-08T02:00:19.913Z,61.22
2022-11-08T02:02:54.745Z,61.85
2022-11-08T02:05:27.344Z,64.15
2022-11-08T02:08:11.386Z,59.78
2022-11-08T02:10:44.946Z,65.45
2022-11-08T02:13:15.680Z,64.25
2022-11-08T02:15:43.401Z,63.20
2022-11-08T02:18:11.514Z,67.55
2022-11-08T02:20:40.602Z,60.92
2022-11-08T02:23:45.282Z,56.38
2022-11-08T02:26:13.005Z,59.45
2022-11-08T02:28:40.950Z,61.97
2022-11-08T02:31:12.827Z,65.20
2022-11-08T02:33:39.680Z,62.63
2022-11-08T02:36:08.296Z,60.42
2022-11-08T02:38:43.228Z,64.13
2022-11-08T02:41:09.880Z,61.17
2022-11-08T02:43:36.779Z,67.57
2022-11-08T02:46:03.742Z,69.60
2022-11-08T02:48:30.595Z,68.43
2022-11-08T02:50:57.764Z,60.85
2022-11-08T02:53:24.409Z,67.05
2022-11-08T02:55:51.293Z,66.60
2022-11-08T02:58:18.251Z,66.93
2022-11-08T03:00:45.111Z,65.05
2022-11-08T03:03:11.793Z,64.68
2022-11-08T03:05:38.456Z,56.45
2022-11-08T03:08:05.215Z,56.83
2022-11-08T03:10:32.006Z,60.25
2022-11-08T03:13:01.352Z,67.88
2022-11-08T03:15:29.231Z,62.33
2022-11-08T03:17:56.919Z,58.05
2022-11-08T03:20:25.333Z,60.78
2022-11-08T03:23:03.585Z,68.90
2022-11-08T03:25:30.528Z,65.40
2022-11-08T03:28:02.949Z,66.80
2022-11-08T03:30:29.606Z,69.53
2022-11-08T03:32:56.414Z,69.50
2022-11-08T03:35:23.144Z,69.10
2022-11-08T03:37:51.605Z,72.72
2022-11-08T03:40:19.241Z,72.63
2022-11-08T03:42:46.164Z,67.07
2022-11-08T03:45:13.669Z,69.82
2022-11-08T03:47:42.718Z,74.03
2022-11-08T03:50:10.673Z,69.72
2022-11-08T03:52:49.966Z,69.07
2022-11-08T03:55:18.550Z,70.60
2022-11-08T03:57:47.517Z,68.18
2022-11-08T04:00:16.131Z,72.45
2022-11-08T04:02:43.097Z,88.28
2022-11-08T04:05:11.826Z,74.53
2022-11-08T04:07:38.944Z,78.47
2022-11-08T04:10:07.882Z,79.68
2022-11-08T04:12:53.069Z,75.95
2022-11-08T04:15:22.705Z,75.97
2022-11-08T04:18:10.578Z,71.28
2022-11-08T04:21:00.239Z,71.90
2022-11-08T04:23:28.750Z,76.05
2022-11-08T04:25:57.714Z,63.53
2022-11-08T04:28:26.317Z,76.60
2022-11-08T04:30:54.862Z,73.40
2022-11-08T04:33:24.412Z,77.80
2022-11-08T04:35:53.341Z,74.07
2022-11-08T04:38:20.916Z,76.50
2022-11-08T04:40:48.083Z,70.40
2022-11-08T04:43:15.058Z,78.60
2022-11-08T04:45:41.742Z,71.82
2022-11-08T04:48:08.893Z,70.60
2022-11-08T04:50:36.621Z,65.55
2022-11-08T04:53:04.059Z,73.95
2022-11-08T04:55:30.722Z,70.93
2022-11-08T04:57:58.994Z,67.97
2022-11-08T05:00:26.556Z,68.45
2022-11-08T05:02:53.841Z,70.13
2022-11-08T05:05:20.718Z,74.13
2022-11-08T05:07:47.375Z,64.35
2022-11-08T05:10:14.195Z,65.68
2022-11-08T05:12:40.873Z,70.63
2022-11-08T05:15:08.536Z,67.30
2022-11-08T05:17:35.268Z,73.97
2022-11-08T05:20:20.840Z,81.35
2022-11-08T05:23:05.935Z,74.38
2022-11-08T05:25:32.960Z,73.43
2022-11-08T05:27:59.580Z,69.40
2022-11-08T05:30:26.602Z,81.55
2022-11-08T05:32:53.457Z,77.55
2022-11-08T05:35:21.747Z,73.63
2022-11-08T05:37:48.811Z,77.40
2022-11-08T05:40:15.638Z,78.55
2022-11-08T05:42:42.683Z,76.30
2022-11-08T05:45:09.841Z,66.78
2022-11-08T05:47:37.127Z,63.92
2022-11-08T05:50:04.355Z,69.20
2022-11-08T05:52:31.166Z,70.65
2022-11-08T05:54:58.049Z,77.80
2022-11-08T05:57:24.673Z,74.47
2022-11-08T05:59:51.557Z,65.80
2022-11-08T06:02:18.616Z,65.30
2022-11-08T06:04:45.422Z,67.72
2022-11-08T06:07:12.133Z,58.85
2022-11-08T06:09:40.095Z,61.42
2022-11-08T06:12:08.008Z,56.90
2022-11-08T06:14:34.893Z,67.80
2022-11-08T06:17:01.607Z,57.40
2022-11-08T06:19:28.471Z,66.68
2022-11-08T06:21:55.075Z,69.90
2022-11-08T06:24:21.653Z,56.05
2022-11-08T06:26:48.439Z,65.50
2022-11-08T06:29:15.107Z,60.50
2022-11-08T06:31:43.165Z,63.60
2022-11-08T06:34:10.608Z,62.83
2022-11-08T06:36:37.327Z,54.92
2022-11-08T06:39:04.135Z,62.75
2022-11-08T06:41:30.781Z,58.15
2022-11-08T06:43:57.356Z,57.35
2022-11-08T06:46:24.448Z,50.25
2022-11-08T06:48:51.350Z,50.70
2022-11-08T06:51:18.756Z,52.20
2022-11-08T06:53:45.433Z,56.20
2022-11-08T06:56:12.560Z,50.78
2022-11-08T06:58:39.678Z,53.75
2022-11-08T07:01:09.063Z,55.50
2022-11-08T07:03:35.774Z,57.85
2022-11-08T07:06:04.428Z,51.25
2022-11-08T07:08:32.305Z,50.28
2022-11-08T07:10:59.622Z,50.17
2022-11-08T07:13:26.365Z,53.92
2022-11-08T07:15:53.257Z,53.33
2022-11-08T07:18:20.163Z,50.05
2022-11-08T07:20:47.284Z,50.85
2022-11-08T07:23:13.970Z,45.45
2022-11-08T07:25:40.959Z,57.05
2022-11-08T07:28:17.755Z,53.33
2022-11-08T07:30:46.265Z,61.10
2022-11-08T07:33:13.649Z,51.13
2022-11-08T07:35:40.612Z,48.67
2022-11-08T07:38:07.863Z,48.95
2022-11-08T07:40:35.313Z,45.88
2022-11-08T07:43:17.514Z,49.15
2022-11-08T07:45:44.194Z,46.85
2022-11-08T07:48:13.800Z,47.22
2022-11-08T07:50:43.789Z,52.38
2022-11-08T07:53:11.265Z,59.60
2022-11-08T07:55:38.985Z,57.78
2022-11-08T07:58:06.126Z,57.97
2022-11-08T08:00:36.531Z,50.47
2022-11-08T08:03:05.118Z,53.05
2022-11-08T08:05:35.616Z,52.25
2022-11-08T08:08:03.073Z,52.97
2022-11-08T08:10:31.752Z,50.50
2022-11-08T08:12:58.639Z,54.80
2022-11-08T08:15:26.593Z,51.72
2022-11-08T08:17:53.626Z,51.38
2022-11-08T08:20:20.233Z,50.55
2022-11-08T08:22:49.040Z,54.05
2022-11-08T08:25:16.824Z,43.22
2022-11-08T08:27:50.965Z,44.72
2022-11-08T08:30:18.661Z,45.78
2022-11-08T08:32:53.592Z,56.40
2022-11-08T08:35:29.646Z,41.28
2022-11-08T08:38:00.654Z,39.72
2022-11-08T08:40:27.957Z,42.97
2022-11-08T08:42:54.645Z,44.38
2022-11-08T08:45:21.215Z,44.90
2022-11-08T08:47:53.219Z,42.75
2022-11-08T08:50:20.977Z,43.58
2022-11-08T08:52:48.064Z,52.70
2022-11-08T08:55:15.465Z,44.78
2022-11-08T08:57:46.640Z,47.58
2022-11-08T09:03:06.609Z,43.08
2022-11-08T09:05:34.369Z,40.90
2022-11-08T09:08:01.508Z,40.97
2022-11-08T09:10:28.937Z,43.08
2022-11-08T09:12:55.957Z,48.70
2022-11-08T09:15:22.562Z,40.45
2022-11-08T09:17:49.148Z,40.25
2022-11-08T09:20:16.405Z,38.60
2022-11-08T09:22:43.115Z,40.22
2022-11-08T09:25:10.743Z,37.50
2022-11-08T09:27:37.655Z,37.83
2022-11-08T09:30:05.387Z,32.45
2022-11-08T09:32:46.519Z,40.15
2022-11-08T09:35:18.902Z,34.20
2022-11-08T09:37:48.710Z,34.17
2022-11-08T09:40:48.995Z,31.23
2022-11-08T09:43:41.929Z,33.53
2022-11-08T09:46:17.547Z,35.17
2022-11-08T09:48:45.256Z,34.45
2022-11-08T09:51:21.288Z,39.17
2022-11-08T09:53:55.079Z,35.50
2022-11-08T09:56:21.663Z,36.65
2022-11-08T09:59:11.626Z,33.17
2022-11-08T10:01:39.084Z,29.10
2022-11-08T10:04:19.365Z,32.00
2022-11-08T10:07:24.775Z,28.55
2022-11-08T10:10:17.140Z,36.22
2022-11-08T10:15:31.314Z,29.17
2022-11-08T10:18:04.194Z,25.08
2022-11-08T10:20:52.760Z,34.63
2022-11-08T10:23:42.284Z,26.83
2022-11-08T10:26:26.739Z,35.25
2022-11-08T10:29:08.890Z,29.35
2022-11-08T10:31:38.757Z,25.38
2022-11-08T10:34:15.407Z,28.75
2022-11-08T10:36:45.475Z,23.58
2022-11-08T10:39:23.282Z,28.65
2022-11-08T10:42:22.237Z,28.83
2022-11-08T10:44:48.992Z,24.30
2022-11-08T10:47:34.413Z,27.42
2022-11-08T10:50:04.298Z,29.80
2022-11-08T10:52:42.435Z,20.52
2022-11-08T10:55:22.718Z,25.33
2022-11-08T10:57:49.446Z,24.98
2022-11-08T11:00:24.671Z,29.73
2022-11-08T11:03:06.342Z,24.60
2022-11-08T11:05:35.688Z,28.20
2022-11-08T11:08:10.159Z,26.33
2022-11-08T11:10:48.651Z,23.45
2022-11-08T11:15:57.493Z,27.30
2022-11-08T11:18:30.749Z,25.65
2022-11-08T11:21:10.410Z,23.10
2022-11-08T11:23:47.475Z,22.80
2022-11-08T11:26:32.194Z,23.42
2022-11-08T11:29:03.952Z,24.88
2022-11-08T11:31:36.911Z,22.67
2022-11-08T11:34:18.841Z,21.50
2022-11-08T11:36:48.390Z,24.05
2022-11-08T11:39:46.118Z,22.23
2022-11-08T11:42:48.580Z,21.70
2022-11-08T11:47:55.261Z,22.75
2022-11-08T11:50:38.393Z,26.08
2022-11-08T11:53:29.863Z,22.48
2022-11-08T11:56:11.715Z,19.80
2022-11-08T11:58:38.279Z,23.00
2022-11-08T12:01:17.902Z,22.15
2022-11-08T12:03:47.454Z,20.15
2022-11-08T12:06:51.673Z,18.65
2022-11-08T12:09:32.321Z,15.57
2022-11-08T12:12:16.058Z,21.88
2022-11-08T12:14:57.394Z,24.48
2022-11-08T12:17:33.841Z,22.00
2022-11-08T12:20:26.871Z,21.25
2022-11-08T12:23:03.029Z,21.13
2022-11-08T12:25:45.660Z,17.27
2022-11-08T12:28:42.321Z,18.50
2022-11-08T12:31:24.282Z,19.85
2022-11-08T12:34:00.910Z,19.23
2022-11-08T12:36:39.764Z,18.20
2022-11-08T12:39:27.813Z,23.38
2022-11-08T12:42:12.864Z,24.02
2022-11-08T12:45:01.265Z,19.40
2022-11-08T12:47:36.610Z,17.75
2022-11-08T12:50:30.008Z,23.48
2022-11-08T12:53:28.194Z,17.98
2022-11-08T12:55:57.370Z,16.42
2022-11-08T12:58:34.418Z,16.02
2022-11-08T13:01:13.244Z,17.25
2022-11-08T13:03:42.993Z,18.70
2022-11-08T13:06:20.374Z,16.70
2022-11-08T13:08:53.933Z,16.77
2022-11-08T13:11:43.492Z,18.20
2022-11-08T13:14:17.673Z,17.63
2022-11-08T13:17:05.536Z,20.58
2022-11-08T13:19:47.340Z,23.05
2022-11-08T13:22:29.284Z,17.50
2022-11-08T13:25:00.737Z,20.90
2022-11-08T13:27:41.422Z,23.38
2022-11-08T13:30:16.963Z,14.27
2022-11-08T13:32:43.504Z,20.67
2022-11-08T13:35:28.862Z,17.65
2022-11-08T13:38:23.530Z,19.55
2022-11-08T13:40:59.300Z,17.90
2022-11-08T13:43:31.424Z,25.63
2022-11-08T13:46:20.078Z,19.20
2022-11-08T13:49:14.934Z,19.90
2022-11-08T13:51:42.594Z,14.80
2022-11-08T13:54:21.434Z,19.13
2022-11-08T13:56:48.304Z,18.88
2022-11-08T13:59:30.116Z,17.75
2022-11-08T14:02:05.668Z,17.08
2022-11-08T14:04:38.820Z,17.50
2022-11-08T14:07:35.480Z,16.95
2022-11-08T14:10:22.845Z,14.50
2022-11-08T14:13:19.418Z,19.90
2022-11-08T14:15:53.869Z,17.05
2022-11-08T14:18:32.131Z,23.60
2022-11-08T14:20:59.358Z,19.05
2022-11-08T14:23:29.436Z,15.07
2022-11-08T14:25:57.944Z,21.10
2022-11-08T14:28:33.739Z,16.10
2022-11-08T14:31:03.711Z,18.13
2022-11-08T14:33:32.373Z,18.23
2022-11-08T14:36:05.360Z,16.58
2022-11-08T14:38:35.903Z,28.17
2022-11-08T14:41:05.521Z,26.30
2022-11-08T14:43:42.646Z,17.35
2022-11-08T14:46:34.461Z,17.38
2022-11-08T14:49:31.991Z,20.55
2022-11-08T14:52:19.116Z,17.50
2022-11-08T14:54:47.671Z,17.40
2022-11-08T14:57:42.124Z,20.88
2022-11-08T15:00:29.644Z,17.95
2022-11-08T15:03:06.414Z,25.80
2022-11-08T15:05:42.313Z,25.33
2022-11-08T15:08:21.915Z,20.40
2022-11-08T15:11:28.575Z,30.65
2022-11-08T15:14:19.636Z,25.30
2022-11-08T15:16:58.650Z,26.40
2022-11-08T15:19:38.105Z,20.65
2022-11-08T15:22:30.600Z,23.60
2022-11-08T15:25:19.135Z,19.63
2022-11-08T15:27:50.515Z,27.15
2022-11-08T15:30:19.499Z,21.50
2022-11-08T15:32:46.569Z,24.23
2022-11-08T15:35:28.390Z,31.95
2022-11-08T15:38:35.477Z,25.15
2022-11-08T15:41:05.264Z,30.70
2022-11-08T15:43:31.809Z,32.33
2022-11-08T15:46:03.802Z,40.00
2022-11-08T15:48:31.959Z,31.52
2022-11-08T15:50:59.020Z,30.02
2022-11-08T15:53:27.191Z,33.13
2022-11-08T15:56:04.899Z,29.25
2022-11-08T15:58:42.155Z,23.65
2022-11-08T16:01:22.955Z,26.25
2022-11-08T16:03:49.759Z,30.52
2022-11-08T16:06:16.790Z,28.48
2022-11-08T16:08:43.568Z,42.72
2022-11-08T16:11:22.948Z,27.52
2022-11-08T16:13:51.983Z,35.42
2022-11-08T16:16:18.591Z,37.42
2022-11-08T16:18:45.889Z,32.60
2022-11-08T16:21:13.838Z,35.40
2022-11-08T16:23:41.016Z,36.00
2022-11-08T16:26:12.539Z,31.45
2022-11-08T16:28:39.456Z,32.33
2022-11-08T16:31:10.389Z,32.67
2022-11-08T16:33:37.146Z,38.35
2022-11-08T16:36:13.257Z,38.85
2022-11-08T16:38:40.080Z,40.38
2022-11-08T16:41:06.776Z,34.55
2022-11-08T16:43:33.775Z,47.70
2022-11-08T16:46:06.735Z,40.58
2022-11-08T16:48:36.646Z,43.88
2022-11-08T16:51:05.977Z,37.92
2022-11-08T16:53:34.635Z,34.80
2022-11-08T16:56:01.575Z,46.15
2022-11-08T16:58:28.419Z,38.63
2022-11-08T17:00:56.394Z,39.22
2022-11-08T17:03:25.412Z,45.00
2022-11-08T17:05:54.063Z,47.53
2022-11-08T17:08:21.928Z,44.03
2022-11-08T17:10:48.756Z,40.20
2022-11-08T17:13:16.989Z,42.17
2022-11-08T17:15:45.288Z,37.33
2022-11-08T17:18:17.669Z,33.45
2022-11-08T17:20:44.903Z,37.75
2022-11-08T17:23:11.954Z,33.97
2022-11-08T17:25:44.174Z,31.63
2022-11-08T17:30:44.711Z,33.85
2022-11-08T17:33:12.945Z,31.30
2022-11-08T17:35:43.913Z,31.85
2022-11-08T17:38:11.109Z,30.30
2022-11-08T17:40:37.909Z,29.45
2022-11-08T17:43:04.577Z,31.17
2022-11-08T17:45:31.274Z,36.17
2022-11-08T17:47:57.975Z,27.85
2022-11-08T17:50:24.992Z,29.30
2022-11-08T17:52:54.850Z,29.52
2022-11-08T17:55:21.603Z,30.50
2022-11-08T17:57:48.354Z,29.98
2022-11-08T18:00:16.377Z,27.38
2022-11-08T18:02:43.506Z,23.02
2022-11-08T18:05:10.580Z,26.52
2022-11-08T18:07:38.674Z,26.13
2022-11-08T18:10:07.076Z,29.65
2022-11-08T18:12:34.008Z,33.15
2022-11-08T18:15:01.228Z,28.75
2022-11-08T18:17:28.192Z,29.40
2022-11-08T18:19:54.921Z,28.50
2022-11-08T18:22:21.654Z,32.72
2022-11-08T18:24:50.059Z,29.33
2022-11-08T18:27:17.170Z,32.55
2022-11-08T18:29:43.980Z,34.17
2022-11-08T18:32:10.785Z,33.78
2022-11-08T18:34:40.147Z,27.73
2022-11-08T18:37:06.738Z,30.77
2022-11-08T18:39:33.738Z,28.27
2022-11-08T18:42:00.378Z,31.83
2022-11-08T18:44:27.006Z,31.95
2022-11-08T18:46:53.905Z,35.92
2022-11-08T18:49:20.700Z,33.50
2022-11-08T18:51:52.118Z,30.20
2022-11-08T18:54:19.855Z,27.38
2022-11-08T18:56:46.486Z,30.23
2022-11-08T18:59:13.259Z,30.67
2022-11-08T19:01:39.927Z,31.35
2022-11-08T19:04:06.790Z,30.73
2022-11-08T19:06:33.506Z,29.30
2022-11-08T19:09:00.307Z,33.60
2022-11-08T19:11:30.841Z,36.05
2022-11-08T19:13:58.966Z,36.58
2022-11-08T19:16:25.690Z,34.80
2022-11-08T19:18:52.434Z,28.45
2022-11-08T19:21:22.956Z,45.28
2022-11-08T19:23:50.779Z,32.00
2022-11-08T19:26:22.922Z,38.63
2022-11-08T19:31:19.619Z,79.70
2022-11-08T19:33:47.504Z,65.13
2022-11-08T19:36:20.987Z,49.90
2022-11-08T19:38:47.915Z,48.22
2022-11-08T19:41:17.012Z,46.33
2022-11-08T19:43:44.315Z,39.15
2022-11-08T19:46:15.052Z,35.45
2022-11-08T19:48:43.969Z,37.75
2022-11-08T19:51:14.941Z,34.38
2022-11-08T19:53:44.810Z,44.08
2022-11-08T19:56:16.997Z,44.40
2022-11-08T20:01:17.627Z,43.47
2022-11-08T20:03:45.342Z,49.72
2022-11-08T20:06:13.840Z,48.58
2022-11-08T20:08:40.681Z,52.97
2022-11-08T20:11:15.455Z,48.63
2022-11-08T20:13:42.578Z,46.60
2022-11-08T20:16:11.571Z,49.10
2022-11-08T20:18:38.664Z,48.53
2022-11-08T20:21:09.427Z,47.33
2022-11-08T20:23:36.501Z,46.55
2022-11-08T20:26:05.164Z,47.83
2022-11-08T20:28:32.196Z,46.00
2022-11-08T20:31:03.942Z,52.60
2022-11-08T20:33:33.448Z,44.05
2022-11-08T20:36:19.452Z,45.45
2022-11-08T20:38:48.540Z,50.58
2022-11-08T20:41:17.388Z,52.60
2022-11-08T20:43:45.986Z,46.67
2022-11-08T20:46:13.734Z,50.45
2022-11-08T20:48:42.794Z,56.83
2022-11-08T20:51:13.826Z,88.35
2022-11-08T20:53:42.181Z,66.38
2022-11-08T20:56:12.512Z,61.30
2022-11-08T20:58:39.259Z,51.63
2022-11-08T21:01:07.777Z,55.30
2022-11-08T21:03:35.353Z,48.30
2022-11-08T21:06:05.117Z,44.85
2022-11-08T21:11:19.701Z,47.72
2022-11-08T21:13:46.983Z,48.60
2022-11-08T21:16:29.267Z,51.30
2022-11-08T21:18:58.509Z,49.03
2022-11-08T21:21:25.906Z,55.25
2022-11-08T21:23:54.798Z,48.80
2022-11-08T21:26:22.536Z,54.75
2022-11-08T21:28:49.227Z,54.30
2022-11-08T21:31:16.218Z,53.80
2022-11-08T21:33:43.098Z,61.90
2022-11-08T21:36:10.946Z,53.33
2022-11-08T21:38:39.357Z,56.33
2022-11-08T21:41:08.081Z,46.70
2022-11-08T21:43:39.822Z,48.78
2022-11-08T21:46:21.008Z,57.83
2022-11-08T21:48:52.281Z,54.35
2022-11-08T21:51:18.871Z,59.80
2022-11-08T21:53:53.860Z,55.42
2022-11-08T21:56:22.686Z,60.35
2022-11-08T21:58:49.452Z,56.67
2022-11-08T22:01:16.823Z,58.10
2022-11-08T22:03:43.595Z,52.97
2022-11-08T22:06:10.326Z,55.20
2022-11-08T22:08:36.963Z,48.50
2022-11-08T22:11:03.809Z,47.47
2022-11-08T22:13:30.386Z,54.78
2022-11-08T22:15:57.103Z,54.95
2022-11-08T22:18:36.832Z,51.03
2022-11-08T22:21:29.184Z,49.30
2022-11-08T22:23:55.950Z,51.47
2022-11-08T22:26:22.579Z,48.85
2022-11-08T22:28:49.233Z,58.85
2022-11-08T22:31:15.983Z,55.42
2022-11-08T22:33:42.765Z,52.08
2022-11-08T22:36:09.657Z,50.67
2022-11-08T22:38:36.472Z,59.05
2022-11-08T22:41:03.626Z,52.80
2022-11-08T22:43:30.878Z,47.33
2022-11-08T22:45:57.525Z,49.13
2022-11-08T22:48:24.128Z,51.13
2022-11-08T22:50:50.737Z,50.42
2022-11-08T22:53:17.793Z,48.85
2022-11-08T22:55:45.304Z,53.47
2022-11-08T22:58:13.589Z,51.05
2022-11-08T23:03:21.409Z,53.33
2022-11-08T23:05:52.734Z,50.72
2022-11-08T23:08:20.298Z,53.45
2022-11-08T23:11:06.051Z,52.15
2022-11-08T23:13:51.664Z,47.40
2022-11-08T23:16:37.616Z,52.17
2022-11-08T23:19:51.987Z,42.45
2022-11-08T23:22:37.876Z,51.65
2022-11-08T23:25:05.064Z,50.30
2022-11-08T23:27:50.213Z,52.45
2022-11-08T23:30:37.343Z,47.67
2022-11-08T23:33:06.551Z,40.47
2022-11-08T23:35:33.697Z,48.67
2022-11-08T23:38:00.314Z,43.92
2022-11-08T23:40:45.580Z,48.53
2022-11-08T23:43:36.086Z,50.70
2022-11-08T23:46:12.639Z,59.03
2022-11-08T23:48:40.735Z,46.53
2022-11-08T23:51:07.898Z,48.38
2022-11-08T23:53:37.151Z,51.10
2022-11-08T23:56:04.336Z,48.80
2022-11-08T23:58:32.265Z,49.35
